Fenelon Falls, Canada
Current Conditions -  °F | °C
As of 12:00 PM on Friday 28 Nov 2014 (Local Time) from CYPQ Reporting Station
Light Snow Light Snow  
Wind Chill: 12°   Ceiling: 3300
Heat Index: 25°   Visibility: 9mi
Dew Point: 16°   Wind: 15mph
Humidity: 69%   Direction: 290°WNW
Pressure: 30.19"   Gusts: NA
Location:  44.53°N, 78.75°W
Report Text: CYPQ 281700Z AUTO 29013KT 9SM -SN BKN033 M04/M09 A3019 RMK SLP234
Loading
Personal Weather Stations






























Interactive Weather Map New forecast layout! Learn more

10-Day Weather Forecast

Advertisements
Track Severe Weather on mobile